Time;durP1;ratioP1;P1;durP2;ratioP2;P2;SDS_P1;SDS_P2;PMS_P1;PMS_P2;Temp;Humidity;BMP_temperature;BMP_pressure;BME280_temperature;BME280_humidity;BME280_pressure;Samples;Min_cycle;Max_cycle;Signal;HPM_P1;HPM_P2
2020/12/17 00:02:11;;;;;;;36.53;21.52;;;8.80;99.90;;;;;;5091496;28;20029;-78
2020/12/17 00:04:36;;;;;;;47.75;22.15;;;8.80;99.90;;;;;;5113795;28;20031;-80
2020/12/17 00:07:02;;;;;;;39.63;21.55;;;8.70;99.90;;;;;;5118581;28;20027;-81
2020/12/17 00:09:27;;;;;;;39.10;22.02;;;8.70;99.90;;;;;;5112944;28;20016;-81
2020/12/17 00:11:56;;;;;;;42.63;22.80;;;8.70;99.90;;;;;;5095003;28;20032;-81
2020/12/17 00:14:22;;;;;;;39.78;22.27;;;8.70;99.90;;;;;;5097814;28;20040;-81
2020/12/17 00:16:48;;;;;;;42.75;22.05;;;8.70;99.90;;;;;;5086585;28;20050;-81
2020/12/17 00:19:14;;;;;;;36.25;21.83;;;8.60;99.90;;;;;;5089635;28;20118;-81
2020/12/17 00:21:39;;;;;;;42.88;22.60;;;8.60;99.90;;;;;;5116009;28;20008;-81
2020/12/17 00:24:05;;;;;;;40.35;23.10;;;8.50;99.90;;;;;;5099035;28;20020;-80
2020/12/17 00:26:30;;;;;;;36.38;22.17;;;8.50;99.90;;;;;;5098686;28;20024;-82
2020/12/17 00:28:56;;;;;;;36.08;21.38;;;8.50;99.90;;;;;;5098684;28;20091;-81
2020/12/17 00:31:22;;;;;;;37.45;22.17;;;8.50;99.90;;;;;;5099832;28;20035;-82
2020/12/17 00:33:48;;;;;;;41.63;22.80;;;8.40;99.90;;;;;;5107145;28;20070;-80
2020/12/17 00:36:23;;;;;;;45.30;23.38;;;8.40;99.90;;;;;;5112145;28;20023;-81
2020/12/17 00:38:49;;;;;;;44.47;24.38;;;8.40;99.90;;;;;;5102601;28;20484;-81
2020/12/17 00:41:16;;;;;;;47.92;22.58;;;8.40;99.90;;;;;;5096135;28;20019;-81
2020/12/17 00:43:42;;;;;;;43.85;23.80;;;8.40;99.90;;;;;;5094783;28;20479;-81
2020/12/17 00:46:11;;;;;;;42.25;22.80;;;8.40;99.90;;;;;;5090116;28;20070;-82
2020/12/17 00:48:36;;;;;;;40.40;22.90;;;8.40;99.90;;;;;;5093737;28;20035;-81
2020/12/17 00:51:03;;;;;;;37.75;21.75;;;8.40;99.90;;;;;;5093807;28;20028;-81
2020/12/17 00:53:28;;;;;;;48.42;23.27;;;8.40;99.90;;;;;;5112672;28;20027;-81
2020/12/17 00:55:54;;;;;;;39.55;21.80;;;8.30;99.90;;;;;;5094045;28;20161;-81
2020/12/17 00:58:20;;;;;;;45.80;22.63;;;8.30;99.90;;;;;;5096357;28;20031;-81
2020/12/17 01:00:45;;;;;;;41.30;24.15;;;8.30;99.90;;;;;;5084474;28;20042;-81
2020/12/17 01:03:11;;;;;;;39.22;23.35;;;8.30;99.90;;;;;;5095220;28;20045;-81
2020/12/17 01:05:37;;;;;;;42.10;23.65;;;8.30;99.90;;;;;;5093990;28;20394;-81
2020/12/17 01:08:02;;;;;;;40.10;22.25;;;8.30;99.90;;;;;;5093563;28;20077;-81
2020/12/17 01:10:28;;;;;;;39.83;23.20;;;8.30;99.90;;;;;;5080452;28;20030;-81
2020/12/17 01:12:54;;;;;;;44.00;23.58;;;8.30;99.90;;;;;;5086667;28;20036;-80
2020/12/17 01:15:20;;;;;;;41.65;23.65;;;8.30;99.90;;;;;;5097628;28;20510;-81
2020/12/17 01:17:45;;;;;;;44.15;23.85;;;8.30;99.90;;;;;;5093975;28;20034;-81
2020/12/17 01:20:11;;;;;;;41.10;23.90;;;8.30;99.90;;;;;;5093307;28;20099;-81
2020/12/17 01:22:36;;;;;;;43.35;23.20;;;8.30;99.90;;;;;;5093589;28;20107;-81
2020/12/17 01:25:03;;;;;;;39.10;22.50;;;8.30;99.90;;;;;;5084682;28;20028;-80
2020/12/17 01:27:29;;;;;;;45.35;23.52;;;8.30;99.90;;;;;;5075237;28;20020;-82
2020/12/17 01:29:55;;;;;;;44.85;24.30;;;8.20;99.90;;;;;;5073047;28;20494;-81
2020/12/17 01:32:21;;;;;;;39.85;22.70;;;8.20;99.90;;;;;;5111989;28;20024;-81
2020/12/17 01:34:46;;;;;;;39.50;22.98;;;8.20;99.90;;;;;;5093220;28;20069;-81
2020/12/17 01:37:12;;;;;;;45.95;22.45;;;8.20;99.90;;;;;;5111859;28;20040;-81
2020/12/17 01:39:37;;;;;;;43.38;23.35;;;8.30;99.90;;;;;;5087947;28;20062;-81
2020/12/17 01:42:03;;;;;;;38.35;23.98;;;8.30;99.90;;;;;;5095084;28;20046;-81
2020/12/17 01:44:29;;;;;;;50.83;23.13;;;8.30;99.90;;;;;;5093015;28;20024;-81
2020/12/17 01:46:54;;;;;;;42.03;24.60;;;8.30;99.90;;;;;;5092719;28;20039;-81
2020/12/17 01:49:26;;;;;;;41.13;23.67;;;8.20;99.90;;;;;;5093692;28;20123;-80
2020/12/17 01:51:55;;;;;;;48.25;25.38;;;8.20;99.90;;;;;;5110198;28;20500;-81
2020/12/17 01:54:21;;;;;;;45.30;23.95;;;8.20;99.90;;;;;;5093104;28;20114;-81
2020/12/17 01:56:51;;;;;;;45.13;24.45;;;8.20;99.90;;;;;;5092901;28;20461;-82
2020/12/17 01:59:25;;;;;;;47.63;24.88;;;8.20;99.90;;;;;;5093070;28;20050;-81
2020/12/17 02:01:52;;;;;;;44.50;25.98;;;8.20;99.90;;;;;;5111326;28;20034;-81
2020/12/17 02:04:19;;;;;;;43.95;24.27;;;8.20;99.90;;;;;;5088567;28;20016;-82
2020/12/17 02:06:47;;;;;;;47.63;25.58;;;8.20;99.90;;;;;;5072217;28;20411;-82
2020/12/17 02:09:18;;;;;;;42.92;25.20;;;8.20;99.90;;;;;;5073631;28;20035;-81
2020/12/17 02:11:58;;;;;;;44.80;25.05;;;8.20;99.90;;;;;;5110431;28;20023;-82
2020/12/17 02:14:24;;;;;;;47.30;25.58;;;8.20;99.90;;;;;;5091486;28;20449;-82
2020/12/17 02:16:50;;;;;;;47.05;24.27;;;8.10;99.90;;;;;;5092542;28;20035;-80
2020/12/17 02:19:16;;;;;;;49.47;26.65;;;8.10;99.90;;;;;;5075526;28;20147;-82
2020/12/17 02:21:42;;;;;;;47.58;26.63;;;8.20;99.90;;;;;;5110501;28;20472;-80
2020/12/17 02:24:08;;;;;;;44.38;24.85;;;8.10;99.90;;;;;;5083078;28;20455;-80
2020/12/17 02:26:34;;;;;;;45.58;24.48;;;8.20;99.90;;;;;;5090139;28;20052;-80
2020/12/17 02:29:01;;;;;;;46.92;25.17;;;8.20;99.90;;;;;;5090057;28;20043;-81
2020/12/17 02:31:27;;;;;;;47.78;26.02;;;8.20;99.90;;;;;;5090318;28;20542;-81
2020/12/17 02:33:53;;;;;;;45.47;25.10;;;8.20;99.90;;;;;;5091036;28;20122;-81
2020/12/17 02:36:19;;;;;;;46.58;25.88;;;8.20;99.90;;;;;;5089798;28;20107;-81
2020/12/17 02:38:46;;;;;;;42.42;24.30;;;8.20;99.90;;;;;;5071811;28;20068;-81
2020/12/17 02:41:12;;;;;;;45.58;24.52;;;8.20;99.90;;;;;;5092078;28;20024;-81
2020/12/17 02:43:41;;;;;;;46.10;25.73;;;8.20;99.90;;;;;;5077975;28;20046;-81
2020/12/17 02:46:08;;;;;;;50.08;26.80;;;8.10;99.90;;;;;;5091408;28;20024;-81
2020/12/17 02:48:34;;;;;;;50.78;25.83;;;8.10;99.90;;;;;;5092048;28;20050;-81
2020/12/17 02:50:59;;;;;;;46.42;27.05;;;8.10;99.90;;;;;;5073109;28;20114;-81
2020/12/17 02:53:25;;;;;;;48.17;26.65;;;8.10;99.90;;;;;;5074347;28;20028;-81
2020/12/17 02:55:50;;;;;;;52.35;27.65;;;8.10;99.90;;;;;;5091868;28;20087;-81
2020/12/17 02:58:16;;;;;;;46.45;26.38;;;8.10;99.90;;;;;;5091947;28;20049;-81
2020/12/17 03:00:42;;;;;;;49.20;27.95;;;8.10;99.90;;;;;;5093666;28;20047;-81
2020/12/17 03:03:08;;;;;;;51.25;27.88;;;8.10;99.90;;;;;;5075900;28;20110;-81
2020/12/17 03:05:34;;;;;;;54.15;27.58;;;8.10;99.90;;;;;;5094357;28;20357;-81
2020/12/17 03:08:00;;;;;;;50.90;26.98;;;8.20;99.90;;;;;;5071334;28;20424;-81
2020/12/17 03:10:26;;;;;;;50.85;27.15;;;8.20;99.90;;;;;;5078550;28;20024;-81
2020/12/17 03:12:52;;;;;;;51.00;28.02;;;8.20;99.90;;;;;;5091631;28;20020;-81
2020/12/17 03:15:18;;;;;;;50.15;29.30;;;8.20;99.90;;;;;;5078391;28;20034;-81
2020/12/17 03:17:43;;;;;;;49.60;26.65;;;8.20;99.90;;;;;;5071557;28;20487;-81
2020/12/17 03:20:11;;;;;;;51.50;26.88;;;8.20;99.90;;;;;;5089333;28;20090;-82
2020/12/17 03:22:38;;;;;;;53.85;28.65;;;8.30;99.90;;;;;;5091727;28;20479;-81
2020/12/17 03:25:06;;;;;;;53.05;29.08;;;8.20;99.90;;;;;;5109560;28;20031;-81
2020/12/17 03:27:32;;;;;;;61.72;28.38;;;8.20;99.90;;;;;;5091113;28;20069;-81
2020/12/17 03:29:59;;;;;;;55.35;27.60;;;8.20;99.90;;;;;;5091285;28;20487;-81
2020/12/17 03:32:24;;;;;;;55.15;28.70;;;8.20;99.90;;;;;;5091154;28;20024;-81
2020/12/17 03:34:50;;;;;;;53.40;29.45;;;8.20;99.90;;;;;;5091235;28;20038;-81
2020/12/17 03:37:15;;;;;;;54.28;29.27;;;8.20;99.90;;;;;;5091227;28;20697;-81
2020/12/17 03:39:41;;;;;;;54.25;28.13;;;8.30;99.90;;;;;;5086241;28;20035;-81
2020/12/17 03:42:07;;;;;;;49.42;26.98;;;8.30;99.90;;;;;;5070973;28;20078;-82
2020/12/17 03:44:32;;;;;;;57.05;28.50;;;8.30;99.90;;;;;;5090364;28;20038;-82
2020/12/17 03:46:58;;;;;;;49.38;29.58;;;8.30;99.90;;;;;;5109008;28;20056;-82
2020/12/17 03:49:23;;;;;;;54.78;28.45;;;8.30;99.90;;;;;;5090681;28;20109;-82
2020/12/17 03:51:49;;;;;;;51.30;27.30;;;8.30;99.90;;;;;;5090927;28;20019;-82
2020/12/17 03:54:15;;;;;;;54.20;28.38;;;8.20;99.90;;;;;;5077929;28;20479;-82
2020/12/17 03:56:41;;;;;;;59.03;29.88;;;8.30;99.90;;;;;;5091269;28;20055;-82
2020/12/17 03:59:06;;;;;;;56.00;29.42;;;8.20;99.90;;;;;;5090928;28;20115;-82
2020/12/17 04:01:32;;;;;;;51.72;29.00;;;8.30;99.90;;;;;;5089859;28;20024;-81
2020/12/17 04:03:58;;;;;;;57.38;30.15;;;8.20;99.90;;;;;;5072358;28;20500;-82
2020/12/17 04:06:23;;;;;;;66.45;29.92;;;8.20;99.90;;;;;;5089020;28;20020;-81
2020/12/17 04:08:49;;;;;;;60.58;31.70;;;8.20;99.90;;;;;;5088351;28;20040;-82
2020/12/17 04:11:14;;;;;;;63.50;30.40;;;8.20;99.90;;;;;;5071391;28;20031;-82
2020/12/17 04:13:40;;;;;;;63.53;30.10;;;8.20;99.90;;;;;;5081837;28;20032;-80
2020/12/17 04:16:06;;;;;;;59.53;30.67;;;8.20;99.90;;;;;;5093109;28;20035;-81
2020/12/17 04:18:31;;;;;;;59.47;29.58;;;8.30;99.90;;;;;;5092763;28;20046;-81
2020/12/17 04:20:57;;;;;;;63.63;30.38;;;8.30;99.90;;;;;;5074023;28;20051;-81
2020/12/17 04:23:23;;;;;;;57.00;31.17;;;8.20;99.90;;;;;;5074207;28;20024;-81
2020/12/17 04:25:50;;;;;;;52.58;28.15;;;8.30;99.90;;;;;;5074033;28;20415;-81
2020/12/17 04:28:15;;;;;;;58.22;29.52;;;8.30;99.90;;;;;;5074103;28;20081;-81
2020/12/17 04:30:41;;;;;;;61.22;29.73;;;8.30;99.90;;;;;;5092564;28;20036;-81
2020/12/17 04:33:06;;;;;;;65.53;28.83;;;8.20;99.90;;;;;;5077042;28;20031;-80
2020/12/17 04:35:32;;;;;;;58.35;29.45;;;8.30;99.90;;;;;;5102532;28;20038;-81
2020/12/17 04:37:58;;;;;;;59.00;29.95;;;8.30;99.90;;;;;;5094060;28;20054;-81
2020/12/17 04:40:24;;;;;;;57.25;29.33;;;8.30;99.90;;;;;;5094406;28;20024;-81
2020/12/17 04:42:51;;;;;;;58.67;30.27;;;8.30;99.90;;;;;;5109181;28;20183;-81
2020/12/17 04:45:21;;;;;;;67.45;29.65;;;8.30;99.90;;;;;;5086382;28;20026;-81
2020/12/17 04:47:47;;;;;;;51.83;27.90;;;8.40;99.90;;;;;;5092856;28;20040;-80
2020/12/17 04:50:15;;;;;;;58.50;29.73;;;8.40;99.90;;;;;;5093814;28;20027;-81
2020/12/17 04:52:42;;;;;;;54.83;28.20;;;8.40;99.90;;;;;;5111874;28;20520;-81
2020/12/17 04:55:10;;;;;;;60.00;30.85;;;8.30;99.90;;;;;;5093692;28;20039;-81
2020/12/17 04:57:44;;;;;;;57.42;29.02;;;8.30;99.90;;;;;;5093637;28;20015;-81
2020/12/17 05:00:11;;;;;;;64.00;31.27;;;8.40;99.90;;;;;;5093316;28;20551;-81
2020/12/17 05:02:37;;;;;;;64.95;31.98;;;8.30;99.90;;;;;;5103153;28;20081;-81
2020/12/17 05:05:03;;;;;;;62.25;30.25;;;8.30;99.90;;;;;;5074482;28;20115;-81
2020/12/17 05:07:29;;;;;;;63.63;29.88;;;8.40;99.90;;;;;;5091340;28;20421;-81
2020/12/17 05:09:54;;;;;;;66.82;29.67;;;8.40;99.90;;;;;;5073272;28;20059;-81
2020/12/17 05:12:20;;;;;;;61.45;30.63;;;8.40;99.90;;;;;;5086139;28;20384;-81
2020/12/17 05:14:47;;;;;;;55.78;27.98;;;8.30;99.90;;;;;;5076396;28;20031;-81
2020/12/17 05:17:13;;;;;;;59.95;30.10;;;8.40;99.90;;;;;;5072205;28;20029;-81
2020/12/17 05:19:42;;;;;;;59.58;28.85;;;8.40;99.90;;;;;;5076892;28;20034;-81
2020/12/17 05:22:12;;;;;;;61.35;29.17;;;8.30;99.90;;;;;;5093359;28;20138;-81
2020/12/17 05:24:38;;;;;;;56.85;29.08;;;8.40;99.90;;;;;;5109467;28;20073;-80
2020/12/17 05:27:03;;;;;;;60.05;28.67;;;8.30;99.90;;;;;;5092164;28;20483;-81
2020/12/17 05:29:29;;;;;;;60.38;28.50;;;8.40;99.90;;;;;;5088811;28;20098;-80
2020/12/17 05:31:54;;;;;;;57.67;28.55;;;8.40;99.90;;;;;;5082839;28;20111;-80
2020/12/17 05:34:20;;;;;;;60.70;28.80;;;8.50;99.90;;;;;;5084407;28;20111;-80
2020/12/17 05:36:47;;;;;;;53.72;28.77;;;8.40;99.90;;;;;;5090627;28;20019;-80
2020/12/17 05:39:19;;;;;;;57.90;31.17;;;8.40;99.90;;;;;;5084540;28;20096;-81
2020/12/17 05:41:47;;;;;;;65.07;31.77;;;8.40;99.90;;;;;;5108929;28;20081;-81
2020/12/17 05:44:16;;;;;;;58.92;30.52;;;8.40;99.90;;;;;;5103081;28;20026;-80
2020/12/17 05:46:44;;;;;;;63.55;29.50;;;8.40;99.90;;;;;;5087757;28;20024;-81
2020/12/17 05:49:39;;;;;;;63.85;29.27;;;8.50;99.90;;;;;;5076350;28;20042;-80
2020/12/17 05:52:21;;;;;;;60.63;31.48;;;8.40;99.90;;;;;;5007385;28;20146;-80
2020/12/17 05:54:50;;;;;;;61.95;30.67;;;8.50;99.90;;;;;;4997658;28;20178;-80
2020/12/17 05:57:16;;;;;;;62.03;30.67;;;8.50;99.90;;;;;;5005388;28;20034;-80
2020/12/17 05:59:56;;;;;;;65.10;31.40;;;8.50;99.90;;;;;;4991955;28;20435;-81
2020/12/17 06:02:30;;;;;;;58.25;29.35;;;8.40;99.90;;;;;;4999608;28;20038;-80
2020/12/17 06:05:12;;;;;;;59.63;29.90;;;8.40;99.90;;;;;;5008559;28;20034;-81
2020/12/17 06:07:41;;;;;;;67.00;31.67;;;8.40;99.90;;;;;;4996500;28;20042;-80
2020/12/17 06:10:08;;;;;;;61.67;31.80;;;8.40;99.90;;;;;;4977904;28;20513;-80
2020/12/17 06:12:37;;;;;;;64.90;31.50;;;8.40;99.90;;;;;;4982755;28;20285;-80
2020/12/17 06:15:06;;;;;;;68.95;31.17;;;8.40;99.90;;;;;;4983969;28;20100;-79
2020/12/17 06:17:38;;;;;;;64.35;31.17;;;8.50;99.90;;;;;;4987753;28;20041;-79
2020/12/17 06:20:08;;;;;;;64.47;31.08;;;8.50;99.90;;;;;;4989762;28;20030;-80
2020/12/17 06:22:35;;;;;;;56.63;29.83;;;8.50;99.90;;;;;;4994184;28;20037;-81
2020/12/17 06:25:01;;;;;;;61.53;31.17;;;8.50;99.90;;;;;;5007923;28;20116;-80
2020/12/17 06:27:31;;;;;;;62.78;30.40;;;8.50;99.90;;;;;;5018409;28;20482;-80
2020/12/17 06:30:08;;;;;;;60.53;30.13;;;8.50;99.90;;;;;;5083897;28;20157;-80
2020/12/17 06:32:37;;;;;;;61.45;30.50;;;8.40;99.90;;;;;;5081303;28;20019;-80
2020/12/17 06:35:22;;;;;;;57.17;30.92;;;8.50;99.90;;;;;;5083814;27;20035;-80
2020/12/17 06:37:51;;;;;;;59.40;30.85;;;8.50;99.90;;;;;;5079077;28;20442;-81
2020/12/17 06:40:25;;;;;;;64.88;30.42;;;8.50;99.90;;;;;;5083351;28;20024;-80
2020/12/17 06:42:51;;;;;;;66.32;30.00;;;8.50;99.90;;;;;;5082804;28;20126;-80
2020/12/17 06:45:25;;;;;;;67.50;31.55;;;8.50;99.90;;;;;;5085164;28;20466;-80
2020/12/17 06:47:51;;;;;;;64.57;30.60;;;8.50;99.90;;;;;;5082487;28;20522;-80
2020/12/17 06:50:29;;;;;;;73.07;32.80;;;8.50;99.90;;;;;;5085409;28;20062;-81
2020/12/17 06:53:12;;;;;;;63.30;30.05;;;8.50;99.90;;;;;;5082186;28;20035;-80
2020/12/17 06:55:46;;;;;;;64.93;31.70;;;8.60;99.90;;;;;;5053074;28;20106;-80
2020/12/17 06:58:25;;;;;;;68.22;31.35;;;8.60;99.90;;;;;;5040965;28;20146;-81
2020/12/17 07:00:52;;;;;;;63.63;29.33;;;8.60;99.90;;;;;;5036266;28;21581;-81
2020/12/17 07:03:40;;;;;;;68.28;30.23;;;8.50;99.90;;;;;;5037748;28;20021;-81
2020/12/17 07:06:23;;;;;;;58.47;29.55;;;8.50;99.90;;;;;;5035282;28;20025;-80
2020/12/17 07:08:56;;;;;;;65.22;30.38;;;8.60;99.90;;;;;;5038581;28;20346;-81
2020/12/17 07:11:48;;;;;;;62.25;31.75;;;8.50;99.90;;;;;;5035303;28;20378;-81
2020/12/17 07:14:25;;;;;;;63.15;27.85;;;8.50;99.90;;;;;;5037889;28;20113;-81
2020/12/17 07:17:02;;;;;;;53.83;28.42;;;8.60;99.90;;;;;;5035085;28;20063;-81
2020/12/17 07:19:37;;;;;;;64.05;31.02;;;8.60;99.90;;;;;;5034250;28;20032;-81
2020/12/17 07:22:06;;;;;;;76.80;32.15;;;8.60;99.90;;;;;;5036852;28;20044;-81
2020/12/17 07:24:59;;;;;;;52.38;28.85;;;8.70;99.90;;;;;;5048548;28;20037;-81
2020/12/17 07:27:28;;;;;;;58.35;29.20;;;8.70;99.90;;;;;;5083173;28;20043;-81
2020/12/17 07:30:07;;;;;;;59.78;27.83;;;8.70;99.90;;;;;;5081523;28;20039;-81
2020/12/17 07:32:45;;;;;;;58.05;29.05;;;8.80;99.90;;;;;;5075204;28;20026;-80
2020/12/17 07:35:11;;;;;;;56.67;27.45;;;8.90;99.90;;;;;;5082819;28;20492;-80
2020/12/17 07:37:52;;;;;;;53.03;26.08;;;8.90;99.90;;;;;;5096937;28;20522;-80
2020/12/17 07:40:19;;;;;;;51.05;25.38;;;9.00;99.90;;;;;;5079914;28;20028;-81
2020/12/17 07:43:06;;;;;;;58.78;27.70;;;9.00;99.90;;;;;;5078244;28;20070;-81
2020/12/17 07:45:43;;;;;;;52.53;26.58;;;9.10;99.90;;;;;;5078548;28;20387;-80
2020/12/17 07:48:40;;;;;;;58.00;28.40;;;9.10;99.90;;;;;;5082341;28;20176;-80
2020/12/17 07:51:28;;;;;;;50.72;26.65;;;9.10;99.90;;;;;;5104308;28;20056;-80
2020/12/17 07:53:53;;;;;;;48.47;24.55;;;9.20;99.90;;;;;;5100666;27;20039;-80
2020/12/17 07:56:20;;;;;;;48.28;25.85;;;9.20;99.90;;;;;;5097614;27;20101;-81
2020/12/17 07:58:47;;;;;;;51.28;24.48;;;9.20;99.90;;;;;;5084112;27;20024;-81
2020/12/17 08:01:14;;;;;;;46.13;23.27;;;9.30;99.90;;;;;;5082526;28;20470;-80
2020/12/17 08:03:48;;;;;;;48.50;24.30;;;9.30;99.90;;;;;;5100836;28;20054;-81
2020/12/17 08:06:25;;;;;;;53.53;25.92;;;9.30;99.90;;;;;;5076844;28;20143;-81
2020/12/17 08:09:02;;;;;;;49.55;23.98;;;9.40;99.90;;;;;;5076190;28;20509;-81
2020/12/17 08:11:29;;;;;;;43.85;22.95;;;9.30;99.90;;;;;;5082236;28;20495;-81
2020/12/17 08:14:00;;;;;;;50.67;22.95;;;9.40;99.90;;;;;;5081886;28;20020;-81
2020/12/17 08:16:26;;;;;;;49.78;24.23;;;9.30;99.90;;;;;;5084861;28;20038;-82
2020/12/17 08:18:56;;;;;;;43.80;23.65;;;9.40;99.90;;;;;;5079963;28;20036;-81
2020/12/17 08:21:22;;;;;;;44.65;22.35;;;9.40;99.90;;;;;;5075996;28;20800;-82
2020/12/17 08:23:48;;;;;;;37.50;21.92;;;9.40;99.90;;;;;;5078003;28;20154;-80
2020/12/17 08:26:37;;;;;;;50.75;25.40;;;9.40;99.90;;;;;;5078654;28;20105;-81
2020/12/17 08:29:02;;;;;;;50.78;22.95;;;9.40;99.90;;;;;;5079134;28;20055;-81
2020/12/17 08:31:29;;;;;;;50.92;23.85;;;9.50;99.90;;;;;;5098397;27;20028;-81
2020/12/17 08:33:57;;;;;;;46.17;22.20;;;9.60;99.90;;;;;;5078466;28;20507;-81
2020/12/17 08:36:26;;;;;;;42.13;22.33;;;9.60;99.90;;;;;;5075597;28;20552;-80
2020/12/17 08:38:59;;;;;;;48.60;21.33;;;9.60;99.90;;;;;;5077714;28;20080;-81
2020/12/17 08:41:30;;;;;;;40.95;20.67;;;9.60;99.90;;;;;;5081144;28;20028;-81
2020/12/17 08:44:01;;;;;;;45.17;21.90;;;9.70;99.90;;;;;;5079649;28;20132;-81
2020/12/17 08:46:32;;;;;;;44.13;22.27;;;9.70;99.90;;;;;;5082075;28;20102;-81
2020/12/17 08:48:58;;;;;;;38.78;20.20;;;9.70;99.90;;;;;;5075585;28;20137;-82
2020/12/17 08:51:25;;;;;;;44.28;21.92;;;9.70;99.90;;;;;;5080086;27;20799;-82
2020/12/17 08:53:51;;;;;;;46.90;21.80;;;9.70;99.90;;;;;;5079081;28;20039;-83
2020/12/17 08:56:18;;;;;;;47.80;22.10;;;9.80;99.90;;;;;;5080978;28;20032;-82
2020/12/17 08:58:51;;;;;;;40.40;21.92;;;9.70;99.90;;;;;;5078333;28;20040;-82
2020/12/17 09:01:23;;;;;;;39.33;21.10;;;9.70;99.90;;;;;;5076376;28;20444;-82
2020/12/17 09:03:49;;;;;;;38.72;20.10;;;9.70;99.90;;;;;;5079896;28;20031;-83
2020/12/17 09:06:15;;;;;;;45.53;22.52;;;9.70;99.90;;;;;;5100399;28;20070;-83
2020/12/17 09:08:42;;;;;;;43.17;22.13;;;9.70;99.90;;;;;;5076957;28;20456;-82
2020/12/17 09:11:30;;;;;;;48.08;21.10;;;9.70;99.90;;;;;;5057022;28;20071;-82
2020/12/17 09:14:05;;;;;;;38.05;19.92;;;9.70;99.90;;;;;;5079244;28;20020;-82
2020/12/17 09:16:32;;;;;;;38.05;20.48;;;9.70;99.90;;;;;;5079289;28;20071;-84
2020/12/17 09:18:59;;;;;;;38.97;20.60;;;9.70;99.90;;;;;;5099662;28;20516;-82
2020/12/17 09:21:25;;;;;;;38.05;19.98;;;9.80;99.90;;;;;;5081899;28;20028;-82
2020/12/17 09:23:58;;;;;;;38.60;19.30;;;9.80;99.90;;;;;;5093523;28;21817;-82
2020/12/17 09:26:26;;;;;;;41.30;19.13;;;9.80;99.90;;;;;;5069174;28;20038;-82
2020/12/17 09:28:55;;;;;;;44.28;20.83;;;9.80;99.90;;;;;;5076247;28;20043;-81
2020/12/17 09:31:26;;;;;;;41.85;20.67;;;9.80;99.90;;;;;;5079306;28;20396;-81
2020/12/17 09:34:07;;;;;;;34.22;19.75;;;9.80;99.90;;;;;;5079112;28;20052;-80
2020/12/17 09:36:33;;;;;;;38.80;20.02;;;9.80;99.90;;;;;;5075738;28;20020;-81
2020/12/17 09:39:04;;;;;;;39.40;20.77;;;9.80;99.90;;;;;;5095604;28;20062;-81
2020/12/17 09:41:30;;;;;;;34.22;20.23;;;9.80;99.90;;;;;;5078813;28;20036;-81
2020/12/17 09:43:56;;;;;;;36.03;19.80;;;9.80;99.90;;;;;;5068822;28;20056;-81
2020/12/17 09:46:22;;;;;;;46.65;19.17;;;9.80;99.90;;;;;;5077322;28;20027;-81
2020/12/17 09:48:48;;;;;;;41.13;21.85;;;9.80;99.90;;;;;;5083589;28;20546;-82
2020/12/17 09:51:19;;;;;;;39.78;20.13;;;9.90;99.90;;;;;;5079757;28;20033;-82
2020/12/17 09:53:44;;;;;;;50.67;20.20;;;9.80;99.90;;;;;;5095144;28;20024;-82
2020/12/17 09:56:17;;;;;;;36.38;20.13;;;9.80;99.90;;;;;;5078201;28;20093;-82
2020/12/17 09:58:45;;;;;;;39.30;19.73;;;9.80;99.90;;;;;;5097439;27;20027;-81
2020/12/17 10:01:12;;;;;;;40.25;19.83;;;9.80;99.90;;;;;;5099749;28;20032;-82
2020/12/17 10:03:38;;;;;;;46.78;21.10;;;9.90;99.90;;;;;;5093730;27;20114;-82
2020/12/17 10:06:05;;;;;;;39.25;19.70;;;9.90;99.90;;;;;;5066876;28;20031;-82
2020/12/17 10:08:30;;;;;;;37.22;19.58;;;9.90;99.90;;;;;;5093531;28;20031;-82
2020/12/17 10:10:56;;;;;;;35.70;19.75;;;9.90;99.90;;;;;;5075081;28;20098;-82
2020/12/17 10:13:22;;;;;;;37.50;19.58;;;9.90;99.90;;;;;;5074576;28;20184;-82
2020/12/17 10:15:48;;;;;;;36.10;19.13;;;9.90;99.90;;;;;;5075316;28;20060;-81
2020/12/17 10:18:13;;;;;;;31.10;18.95;;;9.90;99.90;;;;;;5093469;28;20473;-82
2020/12/17 10:20:39;;;;;;;36.22;19.13;;;9.90;99.90;;;;;;5093787;28;20122;-82
2020/12/17 10:23:05;;;;;;;29.05;18.13;;;9.90;99.90;;;;;;5076779;28;20721;-83
2020/12/17 10:25:31;;;;;;;29.90;18.40;;;10.00;99.90;;;;;;5093371;28;20023;-82
2020/12/17 10:27:58;;;;;;;34.80;18.73;;;10.00;99.90;;;;;;5094570;28;20139;-82
2020/12/17 10:30:25;;;;;;;32.22;17.30;;;10.00;99.90;;;;;;5076287;28;20052;-82
2020/12/17 10:32:51;;;;;;;30.05;18.70;;;10.00;99.90;;;;;;5074437;28;20027;-82
2020/12/17 10:35:16;;;;;;;33.80;18.52;;;10.00;99.90;;;;;;5075531;28;20031;-83
2020/12/17 10:37:42;;;;;;;33.05;17.52;;;10.00;99.90;;;;;;5072801;28;20142;-82
2020/12/17 10:40:10;;;;;;;33.72;17.02;;;10.00;99.90;;;;;;5066417;28;20044;-82
2020/12/17 10:42:37;;;;;;;27.98;16.88;;;10.10;99.90;;;;;;5063963;28;20027;-82
2020/12/17 10:45:04;;;;;;;23.90;16.80;;;10.10;99.90;;;;;;5067300;28;20047;-82
2020/12/17 10:47:29;;;;;;;28.63;17.05;;;10.10;99.90;;;;;;5074072;28;20036;-82
2020/12/17 10:49:55;;;;;;;31.05;17.27;;;10.10;99.90;;;;;;5072758;28;20050;-81
2020/12/17 10:52:24;;;;;;;25.15;17.50;;;10.10;99.90;;;;;;5071467;28;20164;-81
2020/12/17 10:54:49;;;;;;;22.02;14.98;;;10.00;99.90;;;;;;5073726;28;20042;-81
2020/12/17 10:57:18;;;;;;;22.38;13.90;;;10.10;99.90;;;;;;5073636;28;20024;-81
2020/12/17 10:59:44;;;;;;;29.23;16.40;;;10.10;99.90;;;;;;5093589;28;20432;-82
2020/12/17 11:02:09;;;;;;;17.67;10.60;;;10.00;99.90;;;;;;5089625;28;20077;-82
2020/12/17 11:04:35;;;;;;;14.02;9.40;;;10.10;99.90;;;;;;5092051;27;20035;-81
2020/12/17 11:07:01;;;;;;;16.88;10.63;;;10.10;99.90;;;;;;5073228;28;20065;-82
2020/12/17 11:09:26;;;;;;;13.68;8.68;;;10.20;99.90;;;;;;5058932;28;20048;-82
2020/12/17 11:11:52;;;;;;;15.50;9.95;;;10.20;99.90;;;;;;5073851;28;20036;-82
2020/12/17 11:14:18;;;;;;;16.30;9.50;;;10.20;99.90;;;;;;5073092;28;20028;-82
2020/12/17 11:16:44;;;;;;;18.50;9.13;;;10.30;99.90;;;;;;5076151;28;20028;-82
2020/12/17 11:19:11;;;;;;;14.43;9.02;;;10.40;99.90;;;;;;5074615;28;21470;-82
2020/12/17 11:21:37;;;;;;;15.55;9.55;;;10.50;99.90;;;;;;5074784;28;20032;-82
2020/12/17 11:24:02;;;;;;;11.38;8.90;;;10.50;99.90;;;;;;5096678;28;21674;-81
2020/12/17 11:26:30;;;;;;;15.48;9.55;;;10.40;99.90;;;;;;5099265;28;20035;-82
2020/12/17 11:28:58;;;;;;;18.00;9.20;;;10.40;99.90;;;;;;5081848;28;20050;-81
2020/12/17 11:31:29;;;;;;;17.00;9.63;;;10.50;99.90;;;;;;5084548;28;20046;-81
2020/12/17 11:33:57;;;;;;;12.70;9.05;;;10.50;99.90;;;;;;5079835;28;20030;-82
2020/12/17 11:36:23;;;;;;;15.48;9.60;;;10.60;99.90;;;;;;5081018;28;20034;-82
2020/12/17 11:38:50;;;;;;;13.55;8.70;;;10.60;99.90;;;;;;5081803;28;20047;-83
2020/12/17 11:41:15;;;;;;;12.70;9.13;;;10.50;99.90;;;;;;5081693;28;20091;-82
2020/12/17 11:43:41;;;;;;;17.10;10.45;;;10.50;99.90;;;;;;5097770;28;20538;-82
2020/12/17 11:46:06;;;;;;;11.35;8.45;;;10.50;99.90;;;;;;5083119;28;20072;-82
2020/12/17 11:48:32;;;;;;;14.48;8.52;;;10.50;99.90;;;;;;5084215;28;20048;-82
2020/12/17 11:50:58;;;;;;;11.32;7.82;;;10.50;99.90;;;;;;5080054;28;20030;-82
2020/12/17 11:53:23;;;;;;;11.95;7.93;;;10.50;99.90;;;;;;5085883;28;20038;-83
2020/12/17 11:55:49;;;;;;;10.05;7.50;;;10.70;99.90;;;;;;5078754;28;20054;-82
2020/12/17 11:58:15;;;;;;;13.95;8.15;;;10.70;99.90;;;;;;5083463;28;20024;-82
2020/12/17 12:00:41;;;;;;;13.23;8.88;;;10.70;99.90;;;;;;5088369;28;20088;-82
2020/12/17 12:03:07;;;;;;;11.25;8.80;;;10.70;99.90;;;;;;5063083;28;20033;-82
2020/12/17 12:05:32;;;;;;;10.07;7.35;;;10.90;99.90;;;;;;5038258;28;20564;-82
2020/12/17 12:07:58;;;;;;;14.48;8.00;;;11.10;99.90;;;;;;5038142;28;20119;-82
2020/12/17 12:10:24;;;;;;;12.00;8.55;;;11.30;99.90;;;;;;5058113;28;20032;-82
2020/12/17 12:12:51;;;;;;;12.90;8.18;;;11.20;99.90;;;;;;5054841;28;20509;-82
2020/12/17 12:15:16;;;;;;;11.23;7.38;;;11.10;99.90;;;;;;5058188;28;21537;-83
2020/12/17 12:17:43;;;;;;;9.43;7.47;;;11.10;99.90;;;;;;5056271;28;20091;-83
2020/12/17 12:20:09;;;;;;;13.40;7.90;;;11.00;99.90;;;;;;5053719;28;20033;-82
2020/12/17 12:22:35;;;;;;;11.65;8.00;;;10.90;99.90;;;;;;5057382;28;20044;-81
2020/12/17 12:25:01;;;;;;;10.60;7.93;;;10.80;99.90;;;;;;5050873;28;20154;-82
2020/12/17 12:27:27;;;;;;;14.65;7.72;;;10.70;99.90;;;;;;5063441;28;20024;-82
2020/12/17 12:29:53;;;;;;;12.95;8.55;;;10.60;99.90;;;;;;5057447;28;20512;-82
2020/12/17 12:32:18;;;;;;;10.00;7.82;;;10.60;99.90;;;;;;5044540;28;20020;-82
2020/12/17 12:34:44;;;;;;;12.23;9.40;;;10.70;99.90;;;;;;5070603;28;20088;-81
2020/12/17 12:37:09;;;;;;;15.45;9.80;;;10.60;99.90;;;;;;5079365;27;20032;-81
2020/12/17 12:39:36;;;;;;;11.48;8.80;;;10.60;99.90;;;;;;5098425;28;20092;-82
2020/12/17 12:42:04;;;;;;;13.98;10.65;;;10.60;99.90;;;;;;5098020;28;20024;-81